sensor_id;sensor_type;location;lat;lon;timestamp;temperature;humidity
12841;DHT22;6487;48.626;12.486;2023-02-28T00:01:30;-0.30;93.70
12841;DHT22;6487;48.626;12.486;2023-02-28T00:03:59;-0.20;93.60
12841;DHT22;6487;48.626;12.486;2023-02-28T00:06:28;-0.30;93.40
12841;DHT22;6487;48.626;12.486;2023-02-28T00:08:57;-0.40;93.50
12841;DHT22;6487;48.626;12.486;2023-02-28T00:11:26;-0.30;93.60
12841;DHT22;6487;48.626;12.486;2023-02-28T00:13:54;-0.30;93.60
12841;DHT22;6487;48.626;12.486;2023-02-28T00:16:23;-0.30;93.60
12841;DHT22;6487;48.626;12.486;2023-02-28T00:18:51;-0.30;93.50
12841;DHT22;6487;48.626;12.486;2023-02-28T00:21:20;-0.30;93.50
12841;DHT22;6487;48.626;12.486;2023-02-28T00:23:49;-0.20;93.50
12841;DHT22;6487;48.626;12.486;2023-02-28T00:26:18;-0.40;93.50
12841;DHT22;6487;48.626;12.486;2023-02-28T00:28:47;-0.40;93.60
12841;DHT22;6487;48.626;12.486;2023-02-28T00:31:16;-0.40;93.60
12841;DHT22;6487;48.626;12.486;2023-02-28T00:33:44;-0.30;93.60
12841;DHT22;6487;48.626;12.486;2023-02-28T00:36:12;-0.30;93.50
12841;DHT22;6487;48.626;12.486;2023-02-28T00:38:41;-0.30;93.50
12841;DHT22;6487;48.626;12.486;2023-02-28T00:41:09;-0.30;93.60
12841;DHT22;6487;48.626;12.486;2023-02-28T00:43:39;-0.30;93.60
12841;DHT22;6487;48.626;12.486;2023-02-28T00:46:08;-0.20;93.60
12841;DHT22;6487;48.626;12.486;2023-02-28T00:48:36;-0.30;93.60
12841;DHT22;6487;48.626;12.486;2023-02-28T00:51:05;-0.50;93.90
12841;DHT22;6487;48.626;12.486;2023-02-28T00:53:34;-0.50;94.00
12841;DHT22;6487;48.626;12.486;2023-02-28T00:56:02;-0.40;94.10
12841;DHT22;6487;48.626;12.486;2023-02-28T00:58:31;-0.40;94.30
12841;DHT22;6487;48.626;12.486;2023-02-28T01:01:01;-0.30;94.00
12841;DHT22;6487;48.626;12.486;2023-02-28T01:03:29;-0.40;94.00
12841;DHT22;6487;48.626;12.486;2023-02-28T01:05:58;-0.40;94.00
12841;DHT22;6487;48.626;12.486;2023-02-28T01:08:26;-0.40;94.00
12841;DHT22;6487;48.626;12.486;2023-02-28T01:10:55;-0.30;94.00
12841;DHT22;6487;48.626;12.486;2023-02-28T01:13:23;-0.50;94.10
12841;DHT22;6487;48.626;12.486;2023-02-28T01:15:54;-0.50;94.20
12841;DHT22;6487;48.626;12.486;2023-02-28T01:18:24;-0.50;94.30
12841;DHT22;6487;48.626;12.486;2023-02-28T01:20:53;-0.50;94.30
12841;DHT22;6487;48.626;12.486;2023-02-28T01:23:22;-0.60;94.40
12841;DHT22;6487;48.626;12.486;2023-02-28T01:25:52;-0.50;94.30
12841;DHT22;6487;48.626;12.486;2023-02-28T01:28:20;-0.50;94.20
12841;DHT22;6487;48.626;12.486;2023-02-28T01:30:49;-0.50;94.40
12841;DHT22;6487;48.626;12.486;2023-02-28T01:33:18;-0.60;94.20
12841;DHT22;6487;48.626;12.486;2023-02-28T01:35:48;-0.60;94.40
12841;DHT22;6487;48.626;12.486;2023-02-28T01:38:16;-0.60;94.50
12841;DHT22;6487;48.626;12.486;2023-02-28T01:40:49;-0.60;94.60
12841;DHT22;6487;48.626;12.486;2023-02-28T01:43:22;-0.70;94.60
12841;DHT22;6487;48.626;12.486;2023-02-28T01:45:52;-0.60;94.50
12841;DHT22;6487;48.626;12.486;2023-02-28T01:48:24;-0.70;94.50
12841;DHT22;6487;48.626;12.486;2023-02-28T01:50:58;-0.70;94.70
12841;DHT22;6487;48.626;12.486;2023-02-28T01:53:32;-0.60;94.60
12841;DHT22;6487;48.626;12.486;2023-02-28T01:56:04;-0.60;94.40
12841;DHT22;6487;48.626;12.486;2023-02-28T01:58:34;-0.60;94.50
12841;DHT22;6487;48.626;12.486;2023-02-28T02:01:04;-0.70;94.60
12841;DHT22;6487;48.626;12.486;2023-02-28T02:03:32;-0.70;94.80
12841;DHT22;6487;48.626;12.486;2023-02-28T02:06:05;-0.70;94.70
12841;DHT22;6487;48.626;12.486;2023-02-28T02:08:33;-0.70;94.80
12841;DHT22;6487;48.626;12.486;2023-02-28T02:11:02;-0.80;94.90
12841;DHT22;6487;48.626;12.486;2023-02-28T02:13:42;-0.80;95.20
12841;DHT22;6487;48.626;12.486;2023-02-28T02:16:35;-1.00;95.70
12841;DHT22;6487;48.626;12.486;2023-02-28T02:19:21;-1.00;95.50
12841;DHT22;6487;48.626;12.486;2023-02-28T02:22:29;-1.00;95.50
12841;DHT22;6487;48.626;12.486;2023-02-28T02:25:22;-0.90;95.50
12841;DHT22;6487;48.626;12.486;2023-02-28T02:28:10;-0.90;95.50
12841;DHT22;6487;48.626;12.486;2023-02-28T02:34:34;-0.90;95.60
12841;DHT22;6487;48.626;12.486;2023-02-28T02:37:19;-0.90;95.50
12841;DHT22;6487;48.626;12.486;2023-02-28T02:40:00;-1.00;95.30
12841;DHT22;6487;48.626;12.486;2023-02-28T02:42:38;-1.00;95.50
12841;DHT22;6487;48.626;12.486;2023-02-28T02:45:12;-1.10;95.60
12841;DHT22;6487;48.626;12.486;2023-02-28T02:47:43;-1.00;95.60
12841;DHT22;6487;48.626;12.486;2023-02-28T02:50:18;-1.10;95.60
12841;DHT22;6487;48.626;12.486;2023-02-28T02:52:52;-1.10;95.70
12841;DHT22;6487;48.626;12.486;2023-02-28T02:55:23;-1.10;95.70
12841;DHT22;6487;48.626;12.486;2023-02-28T02:57:56;-1.10;95.80
12841;DHT22;6487;48.626;12.486;2023-02-28T03:00:31;-1.10;95.80
12841;DHT22;6487;48.626;12.486;2023-02-28T03:03:02;-1.20;96.10
12841;DHT22;6487;48.626;12.486;2023-02-28T03:05:39;-1.20;95.90
12841;DHT22;6487;48.626;12.486;2023-02-28T03:08:10;-1.20;96.20
12841;DHT22;6487;48.626;12.486;2023-02-28T03:10:40;-1.30;96.30
12841;DHT22;6487;48.626;12.486;2023-02-28T03:13:26;-1.30;96.30
12841;DHT22;6487;48.626;12.486;2023-02-28T03:16:23;-1.40;96.40
12841;DHT22;6487;48.626;12.486;2023-02-28T03:19:20;-1.40;96.60
12841;DHT22;6487;48.626;12.486;2023-02-28T03:22:16;-1.30;96.60
12841;DHT22;6487;48.626;12.486;2023-02-28T03:24:55;-1.40;96.50
12841;DHT22;6487;48.626;12.486;2023-02-28T03:27:28;-1.40;96.60
12841;DHT22;6487;48.626;12.486;2023-02-28T03:30:01;-1.30;96.60
12841;DHT22;6487;48.626;12.486;2023-02-28T03:32:36;-1.30;96.50
12841;DHT22;6487;48.626;12.486;2023-02-28T03:35:09;-1.30;96.50
12841;DHT22;6487;48.626;12.486;2023-02-28T03:37:42;-1.30;96.50
12841;DHT22;6487;48.626;12.486;2023-02-28T03:40:15;-1.30;96.50
12841;DHT22;6487;48.626;12.486;2023-02-28T03:42:47;-1.40;96.60
12841;DHT22;6487;48.626;12.486;2023-02-28T03:45:20;-1.40;96.60
12841;DHT22;6487;48.626;12.486;2023-02-28T03:47:52;-1.40;96.60
12841;DHT22;6487;48.626;12.486;2023-02-28T03:50:25;-1.40;96.70
12841;DHT22;6487;48.626;12.486;2023-02-28T03:53:01;-1.40;96.60
12841;DHT22;6487;48.626;12.486;2023-02-28T03:55:34;-1.40;96.80
12841;DHT22;6487;48.626;12.486;2023-02-28T03:58:12;-1.40;97.00
12841;DHT22;6487;48.626;12.486;2023-02-28T04:00:46;-1.50;96.70
12841;DHT22;6487;48.626;12.486;2023-02-28T04:03:17;-1.40;96.80
12841;DHT22;6487;48.626;12.486;2023-02-28T04:05:50;-1.60;97.10
12841;DHT22;6487;48.626;12.486;2023-02-28T04:08:21;-1.50;96.80
12841;DHT22;6487;48.626;12.486;2023-02-28T04:10:53;-1.60;97.00
12841;DHT22;6487;48.626;12.486;2023-02-28T04:13:24;-1.50;96.90
12841;DHT22;6487;48.626;12.486;2023-02-28T04:15:52;-1.50;96.90
12841;DHT22;6487;48.626;12.486;2023-02-28T04:18:21;-1.50;96.80
12841;DHT22;6487;48.626;12.486;2023-02-28T04:20:49;-1.50;96.70
12841;DHT22;6487;48.626;12.486;2023-02-28T04:23:17;-1.50;96.70
12841;DHT22;6487;48.626;12.486;2023-02-28T04:25:47;-1.50;97.00
12841;DHT22;6487;48.626;12.486;2023-02-28T04:28:17;-1.50;97.10
12841;DHT22;6487;48.626;12.486;2023-02-28T04:30:46;-1.60;97.00
12841;DHT22;6487;48.626;12.486;2023-02-28T04:33:14;-1.70;97.20
12841;DHT22;6487;48.626;12.486;2023-02-28T04:35:42;-1.70;97.00
12841;DHT22;6487;48.626;12.486;2023-02-28T04:38:11;-1.80;97.20
12841;DHT22;6487;48.626;12.486;2023-02-28T04:40:39;-1.70;97.20
12841;DHT22;6487;48.626;12.486;2023-02-28T04:43:08;-1.70;97.10
12841;DHT22;6487;48.626;12.486;2023-02-28T04:45:37;-1.60;97.10
12841;DHT22;6487;48.626;12.486;2023-02-28T04:48:05;-1.80;97.40
12841;DHT22;6487;48.626;12.486;2023-02-28T04:50:33;-1.70;97.10
12841;DHT22;6487;48.626;12.486;2023-02-28T04:53:02;-1.70;97.10
12841;DHT22;6487;48.626;12.486;2023-02-28T04:55:30;-1.70;97.10
12841;DHT22;6487;48.626;12.486;2023-02-28T04:57:58;-1.70;97.00
12841;DHT22;6487;48.626;12.486;2023-02-28T05:00:28;-1.70;97.00
12841;DHT22;6487;48.626;12.486;2023-02-28T05:02:56;-1.70;96.90
12841;DHT22;6487;48.626;12.486;2023-02-28T05:05:24;-1.70;96.80
12841;DHT22;6487;48.626;12.486;2023-02-28T05:07:52;-1.60;96.90
12841;DHT22;6487;48.626;12.486;2023-02-28T05:10:22;-1.70;96.80
12841;DHT22;6487;48.626;12.486;2023-02-28T05:12:50;-1.70;96.70
12841;DHT22;6487;48.626;12.486;2023-02-28T05:15:18;-1.70;96.90
12841;DHT22;6487;48.626;12.486;2023-02-28T05:17:48;-1.70;96.90
12841;DHT22;6487;48.626;12.486;2023-02-28T05:20:17;-1.70;96.90
12841;DHT22;6487;48.626;12.486;2023-02-28T05:22:45;-1.70;96.90
12841;DHT22;6487;48.626;12.486;2023-02-28T05:25:17;-1.60;96.70
12841;DHT22;6487;48.626;12.486;2023-02-28T05:27:48;-1.70;96.60
12841;DHT22;6487;48.626;12.486;2023-02-28T05:30:16;-1.70;97.00
12841;DHT22;6487;48.626;12.486;2023-02-28T05:32:51;-1.70;96.90
12841;DHT22;6487;48.626;12.486;2023-02-28T05:35:19;-1.80;97.10
12841;DHT22;6487;48.626;12.486;2023-02-28T05:37:47;-1.80;96.80
12841;DHT22;6487;48.626;12.486;2023-02-28T05:40:16;-1.80;96.80
12841;DHT22;6487;48.626;12.486;2023-02-28T05:42:47;-1.70;97.00
12841;DHT22;6487;48.626;12.486;2023-02-28T05:45:15;-1.80;96.90
12841;DHT22;6487;48.626;12.486;2023-02-28T05:47:44;-1.70;96.90
12841;DHT22;6487;48.626;12.486;2023-02-28T05:50:13;-1.70;96.90
12841;DHT22;6487;48.626;12.486;2023-02-28T05:52:42;-1.70;97.00
12841;DHT22;6487;48.626;12.486;2023-02-28T05:55:10;-1.80;96.90
12841;DHT22;6487;48.626;12.486;2023-02-28T05:57:38;-1.70;96.90
12841;DHT22;6487;48.626;12.486;2023-02-28T06:00:08;-1.70;96.80
12841;DHT22;6487;48.626;12.486;2023-02-28T06:02:39;-1.70;96.80
12841;DHT22;6487;48.626;12.486;2023-02-28T06:05:14;-1.80;97.00
12841;DHT22;6487;48.626;12.486;2023-02-28T06:07:44;-1.80;97.20
12841;DHT22;6487;48.626;12.486;2023-02-28T06:10:12;-1.80;97.10
12841;DHT22;6487;48.626;12.486;2023-02-28T06:12:41;-1.80;97.30
12841;DHT22;6487;48.626;12.486;2023-02-28T06:15:12;-1.80;97.40
12841;DHT22;6487;48.626;12.486;2023-02-28T06:17:41;-1.80;97.20
12841;DHT22;6487;48.626;12.486;2023-02-28T06:20:11;-1.80;97.30
12841;DHT22;6487;48.626;12.486;2023-02-28T06:22:41;-1.80;97.20
12841;DHT22;6487;48.626;12.486;2023-02-28T06:25:10;-1.90;97.40
12841;DHT22;6487;48.626;12.486;2023-02-28T06:27:38;-1.80;97.30
12841;DHT22;6487;48.626;12.486;2023-02-28T06:30:08;-1.80;97.40
12841;DHT22;6487;48.626;12.486;2023-02-28T06:32:37;-1.80;97.30
12841;DHT22;6487;48.626;12.486;2023-02-28T06:35:07;-1.90;97.70
12841;DHT22;6487;48.626;12.486;2023-02-28T06:37:35;-1.90;97.70
12841;DHT22;6487;48.626;12.486;2023-02-28T06:40:10;-1.80;97.70
12841;DHT22;6487;48.626;12.486;2023-02-28T06:42:39;-1.80;97.80
12841;DHT22;6487;48.626;12.486;2023-02-28T06:45:09;-1.70;97.70
12841;DHT22;6487;48.626;12.486;2023-02-28T06:47:39;-1.70;97.60
12841;DHT22;6487;48.626;12.486;2023-02-28T06:50:10;-1.80;97.60
12841;DHT22;6487;48.626;12.486;2023-02-28T06:52:39;-1.80;97.60
12841;DHT22;6487;48.626;12.486;2023-02-28T06:55:09;-1.70;97.60
12841;DHT22;6487;48.626;12.486;2023-02-28T06:57:38;-1.70;97.40
12841;DHT22;6487;48.626;12.486;2023-02-28T07:00:08;-1.60;97.50
12841;DHT22;6487;48.626;12.486;2023-02-28T07:02:37;-1.50;97.50
12841;DHT22;6487;48.626;12.486;2023-02-28T07:05:06;-1.40;97.50
12841;DHT22;6487;48.626;12.486;2023-02-28T07:07:35;-1.40;97.50
12841;DHT22;6487;48.626;12.486;2023-02-28T07:10:09;-1.30;97.60
12841;DHT22;6487;48.626;12.486;2023-02-28T07:12:39;-1.20;97.60
12841;DHT22;6487;48.626;12.486;2023-02-28T07:15:09;-1.10;97.60
12841;DHT22;6487;48.626;12.486;2023-02-28T07:17:37;-1.10;97.40
12841;DHT22;6487;48.626;12.486;2023-02-28T07:20:07;-1.00;97.50
12841;DHT22;6487;48.626;12.486;2023-02-28T07:22:36;-0.90;97.20
12841;DHT22;6487;48.626;12.486;2023-02-28T07:25:05;-0.70;97.30
12841;DHT22;6487;48.626;12.486;2023-02-28T07:27:36;-0.50;97.30
12841;DHT22;6487;48.626;12.486;2023-02-28T07:30:05;-0.40;97.10
12841;DHT22;6487;48.626;12.486;2023-02-28T07:32:34;-0.20;96.70
12841;DHT22;6487;48.626;12.486;2023-02-28T07:35:05;0.00;96.90
12841;DHT22;6487;48.626;12.486;2023-02-28T07:37:34;0.20;96.30
12841;DHT22;6487;48.626;12.486;2023-02-28T07:40:03;0.30;96.40
12841;DHT22;6487;48.626;12.486;2023-02-28T07:42:36;0.40;95.70
12841;DHT22;6487;48.626;12.486;2023-02-28T07:45:06;0.50;95.90
12841;DHT22;6487;48.626;12.486;2023-02-28T07:47:35;0.60;94.90
12841;DHT22;6487;48.626;12.486;2023-02-28T07:50:04;0.70;95.30
12841;DHT22;6487;48.626;12.486;2023-02-28T07:52:33;1.00;94.90
12841;DHT22;6487;48.626;12.486;2023-02-28T07:55:01;1.30;94.60
12841;DHT22;6487;48.626;12.486;2023-02-28T07:57:29;1.50;94.30
12841;DHT22;6487;48.626;12.486;2023-02-28T08:00:02;1.80;94.20
12841;DHT22;6487;48.626;12.486;2023-02-28T08:02:31;2.00;93.60
12841;DHT22;6487;48.626;12.486;2023-02-28T08:05:00;2.10;92.90
12841;DHT22;6487;48.626;12.486;2023-02-28T08:07:28;2.30;92.90
12841;DHT22;6487;48.626;12.486;2023-02-28T08:09:57;2.50;92.20
12841;DHT22;6487;48.626;12.486;2023-02-28T08:12:25;2.50;92.40
12841;DHT22;6487;48.626;12.486;2023-02-28T08:14:53;2.50;92.50
12841;DHT22;6487;48.626;12.486;2023-02-28T08:17:23;2.80;92.30
12841;DHT22;6487;48.626;12.486;2023-02-28T08:19:51;2.90;91.40
12841;DHT22;6487;48.626;12.486;2023-02-28T08:22:19;3.00;91.40
12841;DHT22;6487;48.626;12.486;2023-02-28T08:24:48;3.50;91.60
12841;DHT22;6487;48.626;12.486;2023-02-28T08:27:16;3.30;90.30
12841;DHT22;6487;48.626;12.486;2023-02-28T08:29:44;3.20;90.70
12841;DHT22;6487;48.626;12.486;2023-02-28T08:32:13;3.30;90.80
12841;DHT22;6487;48.626;12.486;2023-02-28T08:34:57;3.70;90.40
12841;DHT22;6487;48.626;12.486;2023-02-28T08:37:25;3.80;90.10
12841;DHT22;6487;48.626;12.486;2023-02-28T08:39:54;3.90;90.30
12841;DHT22;6487;48.626;12.486;2023-02-28T08:42:22;4.10;88.30
12841;DHT22;6487;48.626;12.486;2023-02-28T08:44:51;4.00;89.30
12841;DHT22;6487;48.626;12.486;2023-02-28T08:47:19;4.20;89.60
12841;DHT22;6487;48.626;12.486;2023-02-28T08:49:48;4.40;89.20
12841;DHT22;6487;48.626;12.486;2023-02-28T08:52:17;4.30;87.30
12841;DHT22;6487;48.626;12.486;2023-02-28T08:54:46;4.30;88.20
12841;DHT22;6487;48.626;12.486;2023-02-28T08:57:14;4.40;86.80
12841;DHT22;6487;48.626;12.486;2023-02-28T08:59:42;4.60;87.90
12841;DHT22;6487;48.626;12.486;2023-02-28T09:02:12;4.50;85.20
12841;DHT22;6487;48.626;12.486;2023-02-28T09:04:41;4.60;85.10
12841;DHT22;6487;48.626;12.486;2023-02-28T09:07:12;4.50;83.40
12841;DHT22;6487;48.626;12.486;2023-02-28T09:09:42;4.60;84.50
12841;DHT22;6487;48.626;12.486;2023-02-28T09:12:21;4.30;83.50
12841;DHT22;6487;48.626;12.486;2023-02-28T09:14:49;4.30;83.80
12841;DHT22;6487;48.626;12.486;2023-02-28T09:17:18;4.60;84.40
12841;DHT22;6487;48.626;12.486;2023-02-28T09:19:47;5.00;85.00
12841;DHT22;6487;48.626;12.486;2023-02-28T09:22:16;5.00;83.40
12841;DHT22;6487;48.626;12.486;2023-02-28T09:24:46;5.20;82.90
12841;DHT22;6487;48.626;12.486;2023-02-28T09:27:14;5.30;83.60
12841;DHT22;6487;48.626;12.486;2023-02-28T09:29:42;5.20;81.70
12841;DHT22;6487;48.626;12.486;2023-02-28T09:32:11;5.30;83.20
12841;DHT22;6487;48.626;12.486;2023-02-28T09:34:39;5.30;82.20
12841;DHT22;6487;48.626;12.486;2023-02-28T09:37:08;5.40;81.80
12841;DHT22;6487;48.626;12.486;2023-02-28T09:39:36;5.40;80.40
12841;DHT22;6487;48.626;12.486;2023-02-28T09:42:11;5.50;81.30
12841;DHT22;6487;48.626;12.486;2023-02-28T09:44:47;5.60;81.30
12841;DHT22;6487;48.626;12.486;2023-02-28T09:47:21;5.50;80.30
12841;DHT22;6487;48.626;12.486;2023-02-28T09:49:57;5.70;81.60
12841;DHT22;6487;48.626;12.486;2023-02-28T09:52:30;5.70;81.80
12841;DHT22;6487;48.626;12.486;2023-02-28T09:55:05;5.80;79.10
12841;DHT22;6487;48.626;12.486;2023-02-28T09:57:49;5.80;79.40
12841;DHT22;6487;48.626;12.486;2023-02-28T10:00:22;5.80;80.00
12841;DHT22;6487;48.626;12.486;2023-02-28T10:03:22;6.00;78.50
12841;DHT22;6487;48.626;12.486;2023-02-28T10:05:59;6.40;79.60
12841;DHT22;6487;48.626;12.486;2023-02-28T10:08:34;6.50;79.40
12841;DHT22;6487;48.626;12.486;2023-02-28T10:11:09;6.60;78.30
12841;DHT22;6487;48.626;12.486;2023-02-28T10:13:48;6.60;79.20
12841;DHT22;6487;48.626;12.486;2023-02-28T10:16:22;6.90;78.00
12841;DHT22;6487;48.626;12.486;2023-02-28T10:18:57;6.90;77.70
12841;DHT22;6487;48.626;12.486;2023-02-28T10:21:30;7.20;79.70
12841;DHT22;6487;48.626;12.486;2023-02-28T10:24:05;7.40;77.50
12841;DHT22;6487;48.626;12.486;2023-02-28T10:26:43;7.10;76.20
12841;DHT22;6487;48.626;12.486;2023-02-28T10:29:14;7.10;75.20
12841;DHT22;6487;48.626;12.486;2023-02-28T10:31:43;7.10;77.10
12841;DHT22;6487;48.626;12.486;2023-02-28T10:34:12;7.30;77.00
12841;DHT22;6487;48.626;12.486;2023-02-28T10:36:41;7.00;76.00
12841;DHT22;6487;48.626;12.486;2023-02-28T10:39:39;7.00;75.20
12841;DHT22;6487;48.626;12.486;2023-02-28T10:42:24;7.00;75.70
12841;DHT22;6487;48.626;12.486;2023-02-28T10:45:11;7.00;76.30
12841;DHT22;6487;48.626;12.486;2023-02-28T10:47:49;7.30;76.60
12841;DHT22;6487;48.626;12.486;2023-02-28T10:50:33;7.30;75.30
12841;DHT22;6487;48.626;12.486;2023-02-28T10:53:23;7.40;75.20
12841;DHT22;6487;48.626;12.486;2023-02-28T10:56:16;7.20;75.70
12841;DHT22;6487;48.626;12.486;2023-02-28T10:58:49;7.30;74.80
12841;DHT22;6487;48.626;12.486;2023-02-28T11:01:23;7.60;74.10
12841;DHT22;6487;48.626;12.486;2023-02-28T11:03:52;7.70;76.60
12841;DHT22;6487;48.626;12.486;2023-02-28T11:06:23;7.70;76.70
12841;DHT22;6487;48.626;12.486;2023-02-28T11:08:54;7.90;74.60
12841;DHT22;6487;48.626;12.486;2023-02-28T11:11:25;7.50;72.90
12841;DHT22;6487;48.626;12.486;2023-02-28T11:13:57;7.50;74.70
12841;DHT22;6487;48.626;12.486;2023-02-28T11:16:35;7.80;74.60
12841;DHT22;6487;48.626;12.486;2023-02-28T11:19:06;7.70;76.00
12841;DHT22;6487;48.626;12.486;2023-02-28T11:21:50;7.90;73.90
12841;DHT22;6487;48.626;12.486;2023-02-28T11:24:24;7.90;75.20
12841;DHT22;6487;48.626;12.486;2023-02-28T11:26:54;8.00;72.60
12841;DHT22;6487;48.626;12.486;2023-02-28T11:29:24;8.00;73.60
12841;DHT22;6487;48.626;12.486;2023-02-28T11:32:15;8.20;72.60
12841;DHT22;6487;48.626;12.486;2023-02-28T11:34:47;8.20;72.90
12841;DHT22;6487;48.626;12.486;2023-02-28T11:37:29;8.30;72.20
12841;DHT22;6487;48.626;12.486;2023-02-28T11:39:58;8.10;71.60
12841;DHT22;6487;48.626;12.486;2023-02-28T11:42:38;7.80;73.60
12841;DHT22;6487;48.626;12.486;2023-02-28T11:45:28;8.10;72.90
12841;DHT22;6487;48.626;12.486;2023-02-28T11:48:14;8.30;72.20
12841;DHT22;6487;48.626;12.486;2023-02-28T11:50:52;8.00;71.70
12841;DHT22;6487;48.626;12.486;2023-02-28T11:53:39;8.10;71.60
12841;DHT22;6487;48.626;12.486;2023-02-28T11:56:21;8.20;73.10
12841;DHT22;6487;48.626;12.486;2023-02-28T11:59:01;8.10;71.80
12841;DHT22;6487;48.626;12.486;2023-02-28T12:01:44;8.20;71.80
12841;DHT22;6487;48.626;12.486;2023-02-28T12:04:36;8.50;71.80
12841;DHT22;6487;48.626;12.486;2023-02-28T12:07:15;8.40;72.40
12841;DHT22;6487;48.626;12.486;2023-02-28T12:09:55;8.50;71.70
12841;DHT22;6487;48.626;12.486;2023-02-28T12:12:37;8.20;71.90
12841;DHT22;6487;48.626;12.486;2023-02-28T12:15:32;8.30;73.20
12841;DHT22;6487;48.626;12.486;2023-02-28T12:18:39;8.40;72.10
12841;DHT22;6487;48.626;12.486;2023-02-28T12:21:25;8.20;70.90
12841;DHT22;6487;48.626;12.486;2023-02-28T12:24:15;7.90;72.90
12841;DHT22;6487;48.626;12.486;2023-02-28T12:26:55;8.10;73.00
12841;DHT22;6487;48.626;12.486;2023-02-28T12:29:26;8.10;72.30
12841;DHT22;6487;48.626;12.486;2023-02-28T12:32:11;8.10;72.50
12841;DHT22;6487;48.626;12.486;2023-02-28T12:34:46;8.50;72.60
12841;DHT22;6487;48.626;12.486;2023-02-28T12:37:24;8.10;72.20
12841;DHT22;6487;48.626;12.486;2023-02-28T12:40:02;8.30;72.00
12841;DHT22;6487;48.626;12.486;2023-02-28T12:42:38;8.60;72.90
12841;DHT22;6487;48.626;12.486;2023-02-28T12:45:12;8.80;72.20
12841;DHT22;6487;48.626;12.486;2023-02-28T12:47:42;9.00;72.70
12841;DHT22;6487;48.626;12.486;2023-02-28T12:50:12;9.20;73.70
12841;DHT22;6487;48.626;12.486;2023-02-28T12:52:51;9.00;71.20
12841;DHT22;6487;48.626;12.486;2023-02-28T12:55:29;8.60;70.30
12841;DHT22;6487;48.626;12.486;2023-02-28T12:58:08;8.50;70.30
12841;DHT22;6487;48.626;12.486;2023-02-28T13:00:52;8.70;71.30
12841;DHT22;6487;48.626;12.486;2023-02-28T13:03:56;8.90;71.30
12841;DHT22;6487;48.626;12.486;2023-02-28T13:06:50;9.10;72.40
12841;DHT22;6487;48.626;12.486;2023-02-28T13:09:34;9.00;72.50
12841;DHT22;6487;48.626;12.486;2023-02-28T13:12:12;9.10;72.60
12841;DHT22;6487;48.626;12.486;2023-02-28T13:14:41;9.20;71.60
12841;DHT22;6487;48.626;12.486;2023-02-28T13:17:11;8.80;73.20
12841;DHT22;6487;48.626;12.486;2023-02-28T13:19:44;8.90;71.80
12841;DHT22;6487;48.626;12.486;2023-02-28T13:22:18;9.10;73.20
12841;DHT22;6487;48.626;12.486;2023-02-28T13:24:50;9.20;71.70
12841;DHT22;6487;48.626;12.486;2023-02-28T13:27:31;9.00;71.60
12841;DHT22;6487;48.626;12.486;2023-02-28T13:30:01;9.00;71.30
12841;DHT22;6487;48.626;12.486;2023-02-28T13:33:22;9.00;72.00
12841;DHT22;6487;48.626;12.486;2023-02-28T13:36:09;8.90;71.20
12841;DHT22;6487;48.626;12.486;2023-02-28T13:38:40;8.60;71.10
12841;DHT22;6487;48.626;12.486;2023-02-28T13:41:45;8.70;72.60
12841;DHT22;6487;48.626;12.486;2023-02-28T13:44:17;8.40;71.90
12841;DHT22;6487;48.626;12.486;2023-02-28T13:50:24;8.10;73.70
12841;DHT22;6487;48.626;12.486;2023-02-28T13:56:33;8.10;73.50
12841;DHT22;6487;48.626;12.486;2023-02-28T13:59:19;8.20;74.80
12841;DHT22;6487;48.626;12.486;2023-02-28T14:02:11;8.00;74.40
12841;DHT22;6487;48.626;12.486;2023-02-28T14:05:04;7.90;77.20
12841;DHT22;6487;48.626;12.486;2023-02-28T14:07:38;7.90;76.70
12841;DHT22;6487;48.626;12.486;2023-02-28T14:10:21;7.80;76.20
12841;DHT22;6487;48.626;12.486;2023-02-28T14:13:04;7.50;77.10
12841;DHT22;6487;48.626;12.486;2023-02-28T14:15:50;7.60;77.40
12841;DHT22;6487;48.626;12.486;2023-02-28T14:18:27;7.50;77.70
12841;DHT22;6487;48.626;12.486;2023-02-28T14:21:02;7.50;77.90
12841;DHT22;6487;48.626;12.486;2023-02-28T14:24:01;7.40;77.90
12841;DHT22;6487;48.626;12.486;2023-02-28T14:27:09;7.30;77.80
12841;DHT22;6487;48.626;12.486;2023-02-28T14:30:01;7.20;78.90
12841;DHT22;6487;48.626;12.486;2023-02-28T14:32:47;7.40;78.80
12841;DHT22;6487;48.626;12.486;2023-02-28T14:35:40;7.20;78.10
12841;DHT22;6487;48.626;12.486;2023-02-28T14:38:18;7.10;78.50
12841;DHT22;6487;48.626;12.486;2023-02-28T14:40:51;7.10;78.50
12841;DHT22;6487;48.626;12.486;2023-02-28T14:43:21;6.80;78.90
12841;DHT22;6487;48.626;12.486;2023-02-28T14:45:53;6.70;79.50
12841;DHT22;6487;48.626;12.486;2023-02-28T14:48:24;6.60;79.80
12841;DHT22;6487;48.626;12.486;2023-02-28T14:50:56;6.70;80.50
12841;DHT22;6487;48.626;12.486;2023-02-28T14:53:28;6.70;79.80
12841;DHT22;6487;48.626;12.486;2023-02-28T14:55:57;6.40;79.80
12841;DHT22;6487;48.626;12.486;2023-02-28T14:58:28;6.20;80.40
12841;DHT22;6487;48.626;12.486;2023-02-28T15:00:59;6.00;80.90
12841;DHT22;6487;48.626;12.486;2023-02-28T15:03:33;6.20;81.40
12841;DHT22;6487;48.626;12.486;2023-02-28T15:06:03;6.20;81.90
12841;DHT22;6487;48.626;12.486;2023-02-28T15:08:33;6.10;82.00
12841;DHT22;6487;48.626;12.486;2023-02-28T15:11:05;6.10;81.60
12841;DHT22;6487;48.626;12.486;2023-02-28T15:13:38;6.10;81.50
12841;DHT22;6487;48.626;12.486;2023-02-28T15:16:10;6.20;81.50
12841;DHT22;6487;48.626;12.486;2023-02-28T15:18:47;6.10;81.80
12841;DHT22;6487;48.626;12.486;2023-02-28T15:21:19;6.10;82.20
12841;DHT22;6487;48.626;12.486;2023-02-28T15:23:52;6.10;81.80
12841;DHT22;6487;48.626;12.486;2023-02-28T15:26:25;6.10;81.90
12841;DHT22;6487;48.626;12.486;2023-02-28T15:28:59;6.10;82.00
12841;DHT22;6487;48.626;12.486;2023-02-28T15:31:31;5.90;81.70
12841;DHT22;6487;48.626;12.486;2023-02-28T15:34:28;5.80;82.70
12841;DHT22;6487;48.626;12.486;2023-02-28T15:37:25;5.80;82.40
12841;DHT22;6487;48.626;12.486;2023-02-28T15:39:58;5.80;82.70
12841;DHT22;6487;48.626;12.486;2023-02-28T15:42:32;5.80;83.30
12841;DHT22;6487;48.626;12.486;2023-02-28T15:45:00;5.80;82.50
12841;DHT22;6487;48.626;12.486;2023-02-28T15:47:29;5.80;82.90
12841;DHT22;6487;48.626;12.486;2023-02-28T15:50:05;5.70;83.00
12841;DHT22;6487;48.626;12.486;2023-02-28T15:52:39;5.70;83.50
12841;DHT22;6487;48.626;12.486;2023-02-28T15:55:10;5.50;83.70
12841;DHT22;6487;48.626;12.486;2023-02-28T15:57:40;5.60;83.80
12841;DHT22;6487;48.626;12.486;2023-02-28T16:00:12;5.50;84.50
12841;DHT22;6487;48.626;12.486;2023-02-28T16:02:42;5.50;84.20
12841;DHT22;6487;48.626;12.486;2023-02-28T16:05:22;5.50;83.80
12841;DHT22;6487;48.626;12.486;2023-02-28T16:07:55;5.50;84.40
12841;DHT22;6487;48.626;12.486;2023-02-28T16:10:26;5.50;84.40
12841;DHT22;6487;48.626;12.486;2023-02-28T16:12:56;5.50;84.60
12841;DHT22;6487;48.626;12.486;2023-02-28T16:15:27;5.30;84.70
12841;DHT22;6487;48.626;12.486;2023-02-28T16:17:57;5.40;84.80
12841;DHT22;6487;48.626;12.486;2023-02-28T16:20:29;5.30;85.10
12841;DHT22;6487;48.626;12.486;2023-02-28T16:22:58;5.20;85.60
12841;DHT22;6487;48.626;12.486;2023-02-28T16:25:35;5.20;85.50
12841;DHT22;6487;48.626;12.486;2023-02-28T16:28:08;5.10;86.00
12841;DHT22;6487;48.626;12.486;2023-02-28T16:30:44;4.90;86.40
12841;DHT22;6487;48.626;12.486;2023-02-28T16:33:12;5.00;86.40